createdAt,value
2022-11-27T00:01:16.707Z,10.16
2022-11-27T00:03:44.157Z,10.19
2022-11-27T00:06:16.614Z,10.10
2022-11-27T00:08:44.723Z,10.09
2022-11-27T00:11:18.359Z,10.02
2022-11-27T00:13:46.190Z,10.07
2022-11-27T00:16:14.522Z,10.05
2022-11-27T00:18:42.198Z,10.05
2022-11-27T00:21:16.474Z,9.99
2022-11-27T00:23:44.158Z,10.00
2022-11-27T00:26:11.556Z,9.98
2022-11-27T00:28:38.783Z,9.91
2022-11-27T00:31:33.354Z,9.87
2022-11-27T00:34:02.463Z,9.91
2022-11-27T00:36:31.110Z,9.90
2022-11-27T00:38:58.000Z,9.87
2022-11-27T00:41:28.106Z,9.86
2022-11-27T00:43:55.569Z,9.82
2022-11-27T00:46:28.709Z,9.82
2022-11-27T00:48:56.984Z,9.80
2022-11-27T00:51:25.156Z,9.80
2022-11-27T00:53:53.130Z,9.78
2022-11-27T00:56:23.380Z,9.70
2022-11-27T00:58:50.356Z,9.41
2022-11-27T01:01:25.754Z,9.55
2022-11-27T01:03:52.509Z,9.60
2022-11-27T01:06:20.461Z,9.61
2022-11-27T01:08:48.140Z,9.63
2022-11-27T01:11:27.049Z,9.50
2022-11-27T01:13:57.074Z,9.63
2022-11-27T01:16:26.415Z,9.60
2022-11-27T01:18:55.607Z,9.66
2022-11-27T01:21:22.812Z,9.63
2022-11-27T01:23:49.903Z,9.70
2022-11-27T01:26:18.727Z,9.72
2022-11-27T01:28:45.800Z,9.72
2022-11-27T01:31:19.009Z,9.69
2022-11-27T01:33:47.058Z,9.72
2022-11-27T01:36:15.577Z,9.73
2022-11-27T01:38:42.543Z,9.72
2022-11-27T01:41:21.968Z,9.64
2022-11-27T01:43:54.970Z,9.66
2022-11-27T01:46:33.211Z,9.65
2022-11-27T01:49:11.595Z,9.55
2022-11-27T01:51:50.597Z,9.62
2022-11-27T01:54:19.217Z,9.59
2022-11-27T01:56:50.433Z,9.49
2022-11-27T01:59:18.533Z,9.54
2022-11-27T02:01:45.398Z,9.45
2022-11-27T02:04:12.482Z,9.37
2022-11-27T02:06:39.566Z,9.38
2022-11-27T02:09:06.739Z,9.36
2022-11-27T02:11:46.824Z,9.35
2022-11-27T02:14:22.459Z,9.34
2022-11-27T02:17:10.437Z,9.30
2022-11-27T02:20:12.077Z,9.27
2022-11-27T02:23:14.046Z,9.23
2022-11-27T02:26:01.823Z,9.17
2022-11-27T02:28:50.119Z,9.13
2022-11-27T02:31:22.556Z,9.17
2022-11-27T02:33:54.263Z,9.10
2022-11-27T02:36:30.063Z,9.15
2022-11-27T02:39:05.089Z,9.16
2022-11-27T02:41:45.349Z,9.10
2022-11-27T02:44:13.086Z,8.89
2022-11-27T02:46:42.093Z,9.08
2022-11-27T02:49:16.678Z,9.10
2022-11-27T02:51:57.527Z,9.04
2022-11-27T02:54:28.124Z,8.98
2022-11-27T02:56:58.204Z,9.04
2022-11-27T02:59:29.464Z,8.95
2022-11-27T03:02:00.987Z,8.91
2022-11-27T03:04:34.662Z,8.93
2022-11-27T03:07:09.271Z,8.91
2022-11-27T03:09:40.237Z,8.90
2022-11-27T03:12:10.238Z,8.81
2022-11-27T03:14:39.524Z,8.88
2022-11-27T03:17:28.344Z,8.75
2022-11-27T03:20:01.100Z,8.81
2022-11-27T03:22:28.112Z,8.74
2022-11-27T03:24:55.450Z,8.75
2022-11-27T03:27:30.185Z,8.77
2022-11-27T03:30:02.635Z,8.76
2022-11-27T03:32:31.182Z,8.77
2022-11-27T03:34:57.927Z,8.75
2022-11-27T03:37:25.322Z,8.68
2022-11-27T03:39:52.120Z,8.68
2022-11-27T03:42:39.168Z,8.80
2022-11-27T03:45:14.856Z,8.89
2022-11-27T03:47:44.601Z,8.96
2022-11-27T03:50:29.935Z,8.91
2022-11-27T03:53:14.238Z,8.85
2022-11-27T03:56:18.461Z,8.85
2022-11-27T03:59:05.596Z,8.75
2022-11-27T04:01:32.383Z,8.84
2022-11-27T04:03:59.278Z,8.83
2022-11-27T04:06:26.199Z,8.86
2022-11-27T04:08:52.895Z,8.82
2022-11-27T04:11:19.970Z,8.76
2022-11-27T04:13:46.851Z,8.86
2022-11-27T04:16:13.663Z,8.84
2022-11-27T04:18:40.463Z,8.91
2022-11-27T04:21:07.302Z,9.03
2022-11-27T04:23:34.015Z,9.09
2022-11-27T04:26:00.730Z,9.13
2022-11-27T04:28:27.436Z,9.15
2022-11-27T04:30:54.969Z,9.14
2022-11-27T04:33:22.162Z,9.11
2022-11-27T04:35:50.087Z,9.18
2022-11-27T04:38:17.045Z,9.10
2022-11-27T04:40:44.143Z,9.28
2022-11-27T04:43:13.323Z,9.38
2022-11-27T04:45:41.300Z,9.62
2022-11-27T04:48:08.135Z,9.88
2022-11-27T04:50:34.829Z,9.99
2022-11-27T04:53:01.613Z,10.14
2022-11-27T04:55:28.524Z,10.28
2022-11-27T04:57:55.351Z,10.42
2022-11-27T05:00:22.351Z,10.42
2022-11-27T05:02:50.500Z,10.25
2022-11-27T05:05:17.532Z,10.07
2022-11-27T05:07:44.333Z,9.87
2022-11-27T05:10:11.517Z,9.72
2022-11-27T05:12:38.240Z,9.90
2022-11-27T05:15:05.469Z,9.91
2022-11-27T05:17:32.283Z,9.85
2022-11-27T05:20:00.445Z,9.78
2022-11-27T05:22:27.179Z,9.82
2022-11-27T05:24:54.091Z,9.84
2022-11-27T05:27:20.834Z,9.86
2022-11-27T05:29:47.538Z,9.86
2022-11-27T05:32:14.398Z,9.83
2022-11-27T05:34:41.271Z,9.78
2022-11-27T05:37:08.262Z,9.73
2022-11-27T05:39:35.214Z,9.73
2022-11-27T05:42:01.992Z,9.77
2022-11-27T05:44:28.879Z,9.72
2022-11-27T05:46:57.345Z,9.63
2022-11-27T05:49:24.206Z,9.30
2022-11-27T05:51:51.739Z,9.37
2022-11-27T05:54:19.599Z,9.30
2022-11-27T05:56:46.362Z,9.41
2022-11-27T05:59:13.209Z,9.28
2022-11-27T06:01:40.174Z,9.37
2022-11-27T06:04:06.935Z,9.38
2022-11-27T06:06:33.634Z,9.38
2022-11-27T06:09:00.866Z,9.39
2022-11-27T06:11:27.705Z,9.48
2022-11-27T06:13:54.488Z,9.52
2022-11-27T06:16:24.133Z,9.55
2022-11-27T06:18:52.448Z,9.58
2022-11-27T06:21:21.371Z,9.62
2022-11-27T06:23:49.028Z,9.59
2022-11-27T06:26:22.019Z,9.61
2022-11-27T06:28:49.993Z,9.66
2022-11-27T06:31:19.952Z,9.66
2022-11-27T06:33:51.334Z,9.78
2022-11-27T06:36:19.146Z,9.87
2022-11-27T06:38:46.660Z,9.69
2022-11-27T06:41:19.021Z,9.77
2022-11-27T06:43:46.226Z,9.78
2022-11-27T06:46:16.260Z,9.62
2022-11-27T06:48:44.628Z,9.56
2022-11-27T06:51:13.392Z,9.51
2022-11-27T06:53:40.486Z,9.51
2022-11-27T06:56:13.866Z,9.55
2022-11-27T06:58:41.048Z,9.52
2022-11-27T07:01:13.886Z,9.39
2022-11-27T07:03:40.996Z,9.51
2022-11-27T07:06:10.332Z,9.55
2022-11-27T07:08:37.966Z,9.61
2022-11-27T07:11:18.420Z,9.60
2022-11-27T07:13:46.281Z,9.75
2022-11-27T07:16:13.995Z,9.82
2022-11-27T07:18:43.003Z,9.97
2022-11-27T07:21:10.433Z,9.83
2022-11-27T07:23:38.245Z,10.07
2022-11-27T07:26:07.711Z,10.09
2022-11-27T07:28:35.168Z,10.16
2022-11-27T07:31:02.345Z,10.18
2022-11-27T07:33:29.046Z,10.10
2022-11-27T07:36:05.187Z,10.06
2022-11-27T07:38:31.876Z,10.04
2022-11-27T07:41:03.288Z,10.08
2022-11-27T07:43:31.763Z,10.15
2022-11-27T07:45:58.784Z,10.19
2022-11-27T07:48:25.682Z,10.21
2022-11-27T07:50:52.507Z,10.19
2022-11-27T07:53:19.217Z,10.32
2022-11-27T07:55:45.956Z,10.40
2022-11-27T07:58:12.779Z,10.42
2022-11-27T08:00:39.666Z,10.44
2022-11-27T08:03:06.676Z,10.41
2022-11-27T08:05:37.429Z,10.44
2022-11-27T08:08:05.086Z,10.47
2022-11-27T08:10:34.945Z,10.42
2022-11-27T08:13:01.948Z,10.51
2022-11-27T08:15:28.774Z,10.52
2022-11-27T08:17:55.597Z,10.64
2022-11-27T08:20:24.387Z,10.83
2022-11-27T08:22:51.321Z,10.83
2022-11-27T08:25:18.128Z,10.95
2022-11-27T08:27:45.102Z,11.07
2022-11-27T08:30:12.139Z,11.06
2022-11-27T08:32:40.343Z,11.05
2022-11-27T08:35:07.756Z,11.10
2022-11-27T08:37:35.128Z,11.10
2022-11-27T08:40:02.331Z,11.22
2022-11-27T08:42:29.197Z,11.32
2022-11-27T08:44:56.063Z,11.29
2022-11-27T08:47:22.763Z,11.20
2022-11-27T08:49:49.548Z,11.31
2022-11-27T08:52:16.314Z,11.49
2022-11-27T08:54:43.217Z,11.66
2022-11-27T08:57:10.159Z,11.57
2022-11-27T08:59:38.188Z,11.63
2022-11-27T09:02:04.890Z,11.45
2022-11-27T09:04:31.861Z,11.42
2022-11-27T09:06:58.955Z,11.42
2022-11-27T09:09:25.828Z,11.49
2022-11-27T09:11:54.873Z,11.74
2022-11-27T09:14:21.807Z,11.77
2022-11-27T09:16:48.678Z,11.80
2022-11-27T09:19:15.642Z,11.79
2022-11-27T09:21:42.441Z,11.75
2022-11-27T09:24:09.584Z,11.82
2022-11-27T09:26:36.423Z,11.77
2022-11-27T09:29:04.077Z,11.87
2022-11-27T09:31:30.873Z,11.96
2022-11-27T09:33:58.817Z,11.99
2022-11-27T09:36:26.935Z,12.11
2022-11-27T09:38:54.432Z,12.14
2022-11-27T09:41:42.728Z,12.08
2022-11-27T09:44:52.976Z,12.03
2022-11-27T09:47:19.675Z,11.83
2022-11-27T09:49:51.988Z,12.01
2022-11-27T09:53:08.061Z,12.02
2022-11-27T09:55:43.316Z,11.99
2022-11-27T09:58:22.499Z,11.82
2022-11-27T10:00:49.202Z,11.69
2022-11-27T10:03:20.894Z,11.57
2022-11-27T10:06:21.300Z,11.43
2022-11-27T10:09:02.871Z,11.08
2022-11-27T10:11:38.730Z,11.14
2022-11-27T10:14:39.966Z,11.00
2022-11-27T10:17:20.758Z,10.80
2022-11-27T10:20:13.238Z,10.95
2022-11-27T10:22:54.002Z,10.99
2022-11-27T10:25:40.966Z,11.05
2022-11-27T10:28:10.420Z,11.08
2022-11-27T10:30:51.627Z,10.89
2022-11-27T10:33:23.918Z,10.81
2022-11-27T10:35:51.420Z,10.87
2022-11-27T10:38:26.731Z,10.84
2022-11-27T10:41:41.946Z,10.74
2022-11-27T10:44:35.311Z,10.65
2022-11-27T10:47:05.828Z,10.64
2022-11-27T10:49:34.226Z,10.67
2022-11-27T10:52:01.008Z,10.66
2022-11-27T10:54:32.499Z,10.71
2022-11-27T10:57:08.328Z,10.73
2022-11-27T10:59:42.016Z,10.80
2022-11-27T11:02:45.191Z,10.79
2022-11-27T11:06:04.140Z,10.86
2022-11-27T11:08:20.643Z,10.91
2022-11-27T11:11:02.934Z,10.90
2022-11-27T11:13:34.207Z,10.99
2022-11-27T11:16:05.367Z,11.05
2022-11-27T11:18:42.596Z,11.11
2022-11-27T11:21:41.014Z,11.02
2022-11-27T11:24:23.627Z,11.16
2022-11-27T11:26:59.896Z,11.25
2022-11-27T11:29:35.566Z,11.31
2022-11-27T11:32:15.508Z,11.31
2022-11-27T11:34:49.176Z,11.33
2022-11-27T11:37:35.191Z,11.26
2022-11-27T11:40:05.723Z,11.30
2022-11-27T11:42:35.054Z,11.36
2022-11-27T11:45:13.447Z,11.40
2022-11-27T11:47:47.432Z,11.39
2022-11-27T11:50:20.454Z,11.40
2022-11-27T11:53:05.092Z,11.36
2022-11-27T11:56:02.975Z,11.20
2022-11-27T11:58:46.059Z,11.29
2022-11-27T12:01:40.671Z,11.12
2022-11-27T12:04:07.352Z,11.09
2022-11-27T12:06:55.537Z,11.08
2022-11-27T12:09:22.210Z,11.14
2022-11-27T12:11:58.101Z,11.23
2022-11-27T12:14:36.322Z,11.28
2022-11-27T12:17:18.113Z,11.30
2022-11-27T12:20:22.044Z,11.35
2022-11-27T12:23:21.077Z,11.49
2022-11-27T12:26:22.626Z,11.63
2022-11-27T12:28:59.507Z,11.79
2022-11-27T12:31:45.135Z,11.74
2022-11-27T12:34:56.576Z,11.76
2022-11-27T12:37:57.955Z,11.70
2022-11-27T12:40:49.607Z,11.72
2022-11-27T12:43:37.017Z,11.74
2022-11-27T12:46:22.973Z,11.83
2022-11-27T12:49:14.186Z,11.90
2022-11-27T12:51:47.271Z,12.11
2022-11-27T12:54:17.081Z,12.20
2022-11-27T12:56:50.763Z,12.18
2022-11-27T12:59:35.835Z,12.22
2022-11-27T13:02:50.609Z,12.35
2022-11-27T13:05:22.732Z,12.47
2022-11-27T13:07:56.583Z,12.51
2022-11-27T13:10:34.822Z,12.60
2022-11-27T13:13:18.792Z,12.60
2022-11-27T13:15:57.748Z,12.67
2022-11-27T13:18:35.476Z,12.68
2022-11-27T13:21:06.131Z,12.71
2022-11-27T13:23:34.393Z,12.74
2022-11-27T13:26:15.405Z,12.76
2022-11-27T13:28:50.411Z,12.86
2022-11-27T13:31:39.536Z,12.74
2022-11-27T13:34:10.348Z,12.88
2022-11-27T13:36:44.806Z,12.89
2022-11-27T13:39:34.636Z,12.79
2022-11-27T13:42:25.741Z,12.76
2022-11-27T13:44:55.837Z,12.82
2022-11-27T13:47:26.002Z,12.78
2022-11-27T13:50:01.075Z,12.49
2022-11-27T13:52:29.670Z,12.60
2022-11-27T13:55:02.179Z,12.72
2022-11-27T13:57:34.463Z,12.78
2022-11-27T14:00:13.830Z,12.75
2022-11-27T14:02:48.172Z,12.87
2022-11-27T14:05:18.911Z,13.00
2022-11-27T14:07:52.589Z,13.18
2022-11-27T14:10:26.851Z,13.23
2022-11-27T14:13:09.056Z,13.38
2022-11-27T14:15:38.682Z,13.53
2022-11-27T14:18:18.442Z,13.68
2022-11-27T14:20:53.664Z,13.82
2022-11-27T14:23:50.519Z,13.86
2022-11-27T14:26:21.661Z,13.91
2022-11-27T14:28:55.844Z,13.81
2022-11-27T14:31:35.518Z,13.86
2022-11-27T14:34:23.388Z,13.93
2022-11-27T14:36:53.107Z,13.94
2022-11-27T14:39:30.520Z,13.69
2022-11-27T14:41:59.117Z,13.87
2022-11-27T14:44:26.415Z,14.02
2022-11-27T14:46:54.329Z,14.07
2022-11-27T14:49:23.852Z,14.12
2022-11-27T14:51:51.437Z,14.14
2022-11-27T14:54:26.380Z,14.18
2022-11-27T14:56:53.751Z,14.21
2022-11-27T14:59:23.648Z,14.23
2022-11-27T15:02:01.875Z,14.25
2022-11-27T15:04:37.331Z,14.26
2022-11-27T15:07:16.145Z,14.28
2022-11-27T15:09:46.433Z,14.29
2022-11-27T15:12:26.983Z,14.29
2022-11-27T15:15:19.892Z,14.38
2022-11-27T15:17:50.639Z,14.44
2022-11-27T15:20:38.968Z,14.43
2022-11-27T15:23:17.056Z,14.37
2022-11-27T15:25:47.039Z,14.50
2022-11-27T15:28:40.309Z,14.27
2022-11-27T15:31:25.964Z,14.35
2022-11-27T15:34:15.898Z,14.23
2022-11-27T15:36:48.761Z,14.22
2022-11-27T15:39:17.672Z,14.20
2022-11-27T15:41:54.923Z,14.16
2022-11-27T15:44:23.708Z,14.19
2022-11-27T15:46:51.837Z,14.18
2022-11-27T15:49:19.934Z,14.10
2022-11-27T15:51:46.808Z,14.04
2022-11-27T15:54:13.589Z,13.96
2022-11-27T15:56:40.542Z,13.99
2022-11-27T15:59:07.425Z,13.94
2022-11-27T16:01:34.240Z,13.89
2022-11-27T16:04:01.089Z,13.81
2022-11-27T16:06:27.818Z,13.85
2022-11-27T16:08:59.829Z,13.86
2022-11-27T16:11:30.319Z,13.82
2022-11-27T16:13:57.615Z,13.83
2022-11-27T16:16:25.512Z,13.88
2022-11-27T16:18:52.400Z,13.87
2022-11-27T16:21:19.330Z,13.81
2022-11-27T16:23:46.168Z,13.78
2022-11-27T16:26:14.925Z,13.98
2022-11-27T16:28:42.001Z,13.97
2022-11-27T16:31:12.263Z,14.05
2022-11-27T16:33:39.538Z,14.07
2022-11-27T16:36:07.330Z,14.19
2022-11-27T16:38:34.136Z,14.04
2022-11-27T16:41:03.995Z,14.09
2022-11-27T16:43:34.926Z,14.08
2022-11-27T16:46:13.532Z,14.13
2022-11-27T16:48:42.508Z,14.16
2022-11-27T16:51:25.036Z,14.07
2022-11-27T16:53:54.112Z,14.08
2022-11-27T16:56:24.016Z,14.08
2022-11-27T16:58:51.872Z,14.10
2022-11-27T17:01:24.373Z,14.15
2022-11-27T17:03:51.695Z,14.10
2022-11-27T17:06:25.835Z,13.95
2022-11-27T17:08:54.790Z,13.98
2022-11-27T17:11:24.990Z,13.93
2022-11-27T17:13:53.246Z,13.62
2022-11-27T17:16:20.024Z,13.77
2022-11-27T17:18:47.402Z,14.03
2022-11-27T17:21:21.372Z,14.07
2022-11-27T17:23:48.111Z,13.97
2022-11-27T17:26:18.440Z,14.06
2022-11-27T17:28:46.016Z,14.08
2022-11-27T17:31:21.841Z,14.07
2022-11-27T17:33:49.187Z,14.05
2022-11-27T17:36:16.304Z,13.99
2022-11-27T17:38:43.001Z,13.97
2022-11-27T17:41:12.096Z,14.02
2022-11-27T17:43:39.949Z,13.96
2022-11-27T17:46:20.313Z,13.89
2022-11-27T17:48:47.168Z,13.88
2022-11-27T17:51:14.294Z,13.98
2022-11-27T17:53:41.405Z,13.97
2022-11-27T17:56:10.899Z,13.88
2022-11-27T17:58:37.929Z,13.73
2022-11-27T18:01:07.532Z,13.78
2022-11-27T18:03:34.650Z,13.84
2022-11-27T18:06:06.676Z,13.84
2022-11-27T18:08:33.719Z,13.85
2022-11-27T18:11:12.945Z,13.88
2022-11-27T18:13:39.843Z,13.64
2022-11-27T18:16:14.217Z,13.57
2022-11-27T18:18:41.460Z,13.35
2022-11-27T18:21:16.707Z,13.16
2022-11-27T18:24:20.843Z,12.98
2022-11-27T18:27:00.393Z,12.79
2022-11-27T18:29:21.916Z,12.60
2022-11-27T18:31:50.071Z,12.41
2022-11-27T18:34:16.956Z,12.25
2022-11-27T18:36:45.976Z,12.05
2022-11-27T18:39:13.536Z,11.91
2022-11-27T18:41:40.956Z,11.88
2022-11-27T18:44:07.827Z,11.71
2022-11-27T18:46:34.645Z,11.71
2022-11-27T18:49:01.445Z,11.63
2022-11-27T18:51:28.539Z,11.58
2022-11-27T18:53:56.668Z,11.55
2022-11-27T18:56:26.180Z,11.53
2022-11-27T18:58:54.091Z,11.54
2022-11-27T19:01:22.481Z,11.64
2022-11-27T19:03:50.299Z,11.69
2022-11-27T19:06:20.023Z,11.74
2022-11-27T19:08:47.748Z,11.71
2022-11-27T19:11:19.533Z,11.69
2022-11-27T19:13:47.220Z,11.73
2022-11-27T19:16:17.445Z,11.75
2022-11-27T19:18:44.208Z,11.48
2022-11-27T19:21:15.833Z,11.71
2022-11-27T19:23:43.154Z,11.74
2022-11-27T19:26:12.733Z,11.72
2022-11-27T19:28:40.740Z,11.78
2022-11-27T19:31:10.288Z,11.79
2022-11-27T19:33:37.843Z,11.78
2022-11-27T19:36:11.297Z,11.78
2022-11-27T19:38:39.542Z,11.75
2022-11-27T19:41:15.302Z,11.73
2022-11-27T19:43:42.460Z,11.69
2022-11-27T19:46:27.664Z,11.65
2022-11-27T19:48:59.161Z,11.73
2022-11-27T19:51:27.816Z,11.76
2022-11-27T19:53:55.095Z,11.70
2022-11-27T19:56:21.909Z,11.71
2022-11-27T19:58:48.779Z,11.66
2022-11-27T20:01:20.178Z,11.57
2022-11-27T20:03:47.423Z,11.59
2022-11-27T20:06:18.242Z,11.60
2022-11-27T20:08:47.036Z,11.57
2022-11-27T20:11:16.841Z,11.47
2022-11-27T20:13:43.751Z,11.44
2022-11-27T20:16:12.429Z,11.39
2022-11-27T20:18:39.744Z,11.33
2022-11-27T20:21:15.572Z,11.21
2022-11-27T20:23:43.294Z,11.20
2022-11-27T20:26:16.295Z,11.17
2022-11-27T20:28:43.427Z,11.22
2022-11-27T20:31:16.048Z,11.22
2022-11-27T20:33:42.839Z,11.23
2022-11-27T20:36:16.511Z,11.25
2022-11-27T20:38:43.883Z,11.26
2022-11-27T20:41:13.416Z,11.28
2022-11-27T20:43:40.816Z,11.32
2022-11-27T20:46:10.376Z,11.33
2022-11-27T20:48:37.176Z,11.33
2022-11-27T20:51:15.658Z,11.29
2022-11-27T20:53:44.175Z,11.31
2022-11-27T20:56:12.875Z,11.30
2022-11-27T20:58:41.889Z,11.30
2022-11-27T21:01:16.272Z,11.24
2022-11-27T21:03:43.716Z,11.26
2022-11-27T21:06:10.866Z,11.23
2022-11-27T21:08:38.030Z,11.20
2022-11-27T21:11:26.836Z,11.10
2022-11-27T21:13:56.592Z,11.09
2022-11-27T21:16:25.536Z,11.09
2022-11-27T21:18:53.940Z,11.08
2022-11-27T21:21:20.739Z,10.93
2022-11-27T21:23:47.511Z,10.99
2022-11-27T21:26:16.423Z,10.95
2022-11-27T21:28:43.563Z,10.94
2022-11-27T21:31:19.758Z,10.91
2022-11-27T21:33:48.594Z,10.82
2022-11-27T21:36:15.994Z,10.85
2022-11-27T21:38:42.827Z,10.80
2022-11-27T21:41:12.867Z,10.79
2022-11-27T21:43:42.595Z,10.62
2022-11-27T21:46:12.860Z,10.71
2022-11-27T21:48:40.033Z,10.35
2022-11-27T21:51:12.777Z,10.61
2022-11-27T21:53:40.637Z,10.64
2022-11-27T21:56:09.455Z,10.67
2022-11-27T21:58:37.249Z,10.73
2022-11-27T22:01:06.934Z,10.73
2022-11-27T22:03:38.579Z,10.70
2022-11-27T22:06:12.903Z,10.68
2022-11-27T22:08:40.336Z,10.67
2022-11-27T22:11:13.714Z,10.64
2022-11-27T22:13:41.674Z,10.59
2022-11-27T22:16:11.533Z,10.58
2022-11-27T22:18:38.718Z,10.53
2022-11-27T22:21:06.971Z,10.50
2022-11-27T22:23:34.049Z,10.51
2022-11-27T22:26:05.927Z,10.46
2022-11-27T22:28:32.805Z,10.45
2022-11-27T22:30:59.764Z,10.50
2022-11-27T22:33:26.695Z,10.57
2022-11-27T22:35:53.390Z,10.59
2022-11-27T22:38:20.335Z,10.68
2022-11-27T22:40:47.178Z,10.72
2022-11-27T22:43:13.910Z,10.78
2022-11-27T22:45:42.124Z,10.85
2022-11-27T22:48:08.827Z,10.85
2022-11-27T22:50:35.569Z,10.90
2022-11-27T22:53:02.393Z,10.96
2022-11-27T22:55:29.128Z,10.97
2022-11-27T22:57:55.823Z,10.98
2022-11-27T23:00:23.078Z,10.94
2022-11-27T23:02:49.833Z,10.91
2022-11-27T23:05:16.643Z,10.93
2022-11-27T23:07:43.507Z,10.86
2022-11-27T23:10:10.799Z,10.85
2022-11-27T23:12:37.556Z,10.81
2022-11-27T23:15:05.094Z,10.80
2022-11-27T23:17:31.884Z,10.80
2022-11-27T23:19:58.594Z,10.79
2022-11-27T23:22:25.376Z,10.80
2022-11-27T23:24:53.690Z,10.83
2022-11-27T23:27:20.572Z,10.82
2022-11-27T23:29:47.447Z,10.78
2022-11-27T23:32:14.247Z,10.79
2022-11-27T23:34:41.559Z,10.81
2022-11-27T23:37:08.620Z,10.87
2022-11-27T23:39:35.328Z,10.77
2022-11-27T23:42:02.443Z,10.79
2022-11-27T23:44:30.036Z,10.74
2022-11-27T23:46:56.743Z,10.67
2022-11-27T23:49:23.900Z,10.65
2022-11-27T23:51:50.708Z,10.67
2022-11-27T23:54:17.424Z,10.69
2022-11-27T23:56:44.298Z,10.66
2022-11-27T23:59:11.271Z,10.61
